createdAt,value
2018-12-23T00:00:56.493Z,2.63
2018-12-23T00:03:23.970Z,1.93
2018-12-23T00:05:51.427Z,2.20
2018-12-23T00:08:18.910Z,3.73
2018-12-23T00:10:46.363Z,2.10
2018-12-23T00:13:13.833Z,3.30
2018-12-23T00:15:41.314Z,1.90
2018-12-23T00:18:08.754Z,2.47
2018-12-23T00:20:36.226Z,2.83
2018-12-23T00:23:03.710Z,2.17
2018-12-23T00:25:31.242Z,2.67
2018-12-23T00:27:58.739Z,2.20
2018-12-23T00:30:26.188Z,2.60
2018-12-23T00:32:53.638Z,3.47
2018-12-23T00:35:21.117Z,2.90
2018-12-23T00:37:48.694Z,3.30
2018-12-23T00:40:16.165Z,3.20
2018-12-23T00:42:43.628Z,3.50
2018-12-23T00:45:11.270Z,3.47
2018-12-23T00:47:38.751Z,3.63
2018-12-23T00:50:06.803Z,3.90
2018-12-23T00:52:34.266Z,4.30
2018-12-23T00:55:01.743Z,2.93
2018-12-23T00:57:29.220Z,4.27
2018-12-23T00:59:56.676Z,2.50
2018-12-23T01:02:24.175Z,3.60
2018-12-23T01:04:51.715Z,3.80
2018-12-23T01:07:19.198Z,3.63
2018-12-23T01:09:46.652Z,3.67
2018-12-23T01:12:14.134Z,3.57
2018-12-23T01:14:41.717Z,3.87
2018-12-23T01:17:09.178Z,3.97
2018-12-23T01:19:36.639Z,4.13
2018-12-23T01:22:04.181Z,5.03
2018-12-23T01:24:31.651Z,5.00
2018-12-23T01:26:59.202Z,4.87
2018-12-23T01:29:26.671Z,5.30
2018-12-23T01:31:54.114Z,4.87
2018-12-23T01:34:21.589Z,4.40
2018-12-23T01:36:49.046Z,5.57
2018-12-23T01:39:16.668Z,4.70
2018-12-23T01:41:44.138Z,4.00
2018-12-23T01:44:11.624Z,5.27
2018-12-23T01:46:39.086Z,4.70
2018-12-23T01:49:06.557Z,4.10
2018-12-23T01:51:34.050Z,5.40
2018-12-23T01:54:01.510Z,4.60
2018-12-23T01:56:29.040Z,5.50
2018-12-23T01:58:56.503Z,6.00
2018-12-23T02:01:23.968Z,6.10
2018-12-23T02:03:51.425Z,4.80
2018-12-23T02:06:18.979Z,8.00
2018-12-23T02:08:46.449Z,6.00
2018-12-23T02:11:13.929Z,6.00
2018-12-23T02:13:41.419Z,4.90
2018-12-23T02:16:08.912Z,8.50
2018-12-23T02:18:36.372Z,6.67
2018-12-23T02:21:03.875Z,7.13
2018-12-23T02:23:31.386Z,7.20
2018-12-23T02:25:58.964Z,8.03
2018-12-23T02:28:26.416Z,7.30
2018-12-23T02:30:53.895Z,7.07
2018-12-23T02:33:21.366Z,7.93
2018-12-23T02:35:55.469Z,7.93
2018-12-23T02:38:18.334Z,7.17
2018-12-23T02:40:45.882Z,8.53
2018-12-23T02:43:13.362Z,8.60
2018-12-23T02:45:40.809Z,7.73
2018-12-23T02:48:08.262Z,10.20
2018-12-23T02:50:35.970Z,9.70
2018-12-23T02:53:03.457Z,9.30
2018-12-23T02:55:31.090Z,8.07
2018-12-23T02:57:58.576Z,8.93
2018-12-23T03:00:26.015Z,9.13
2018-12-23T03:02:53.552Z,11.30
2018-12-23T03:05:21.193Z,8.20
2018-12-23T03:07:48.650Z,9.90
2018-12-23T03:10:16.130Z,9.90
2018-12-23T03:12:43.590Z,11.17
2018-12-23T03:15:11.059Z,9.57
2018-12-23T03:17:38.721Z,8.53
2018-12-23T03:20:06.349Z,10.30
2018-12-23T03:22:33.874Z,12.97
2018-12-23T03:25:01.331Z,11.00
2018-12-23T03:27:29.092Z,12.43
2018-12-23T03:29:56.699Z,12.40
2018-12-23T03:32:24.226Z,15.40
2018-12-23T03:34:51.788Z,15.07
2018-12-23T03:37:19.263Z,15.87
2018-12-23T03:39:46.734Z,6.77
2018-12-23T03:42:14.291Z,16.17
2018-12-23T03:44:41.775Z,17.13
2018-12-23T03:47:09.274Z,10.20
2018-12-23T03:49:36.746Z,15.53
2018-12-23T03:52:04.199Z,17.40
2018-12-23T03:54:31.734Z,10.30
2018-12-23T03:56:59.193Z,18.90
2018-12-23T03:59:26.666Z,22.17
2018-12-23T04:01:54.117Z,20.30
2018-12-23T04:04:21.611Z,20.73
2018-12-23T04:06:49.057Z,17.97
2018-12-23T04:09:16.588Z,26.57
2018-12-23T04:11:44.061Z,22.93
2018-12-23T04:14:11.514Z,23.93
2018-12-23T04:16:39.048Z,28.07
2018-12-23T04:19:06.573Z,21.93
2018-12-23T04:21:34.044Z,25.80
2018-12-23T04:24:01.517Z,25.03
2018-12-23T04:26:29.001Z,26.20
2018-12-23T04:28:56.455Z,27.67
2018-12-23T04:31:23.918Z,27.00
2018-12-23T04:33:51.401Z,21.03
2018-12-23T04:36:18.878Z,24.07
2018-12-23T04:38:46.336Z,14.80
2018-12-23T04:41:13.825Z,17.87
2018-12-23T04:43:41.284Z,23.07
2018-12-23T04:46:08.787Z,21.30
2018-12-23T04:48:36.310Z,23.60
2018-12-23T04:51:03.781Z,23.53
2018-12-23T04:53:31.235Z,26.53
2018-12-23T04:55:58.771Z,17.33
2018-12-23T04:58:26.260Z,22.83
2018-12-23T05:00:53.749Z,14.40
2018-12-23T05:03:21.231Z,18.80
2018-12-23T05:05:48.815Z,15.53
2018-12-23T05:08:16.334Z,22.87
2018-12-23T05:10:43.826Z,18.67
2018-12-23T05:13:11.317Z,18.73
2018-12-23T05:15:38.833Z,16.83
2018-12-23T05:18:06.286Z,19.80
2018-12-23T05:20:33.772Z,22.30
2018-12-23T05:23:01.333Z,17.57
2018-12-23T05:25:28.802Z,23.63
2018-12-23T05:27:56.298Z,19.13
2018-12-23T05:30:23.770Z,18.87
2018-12-23T05:32:51.244Z,20.17
2018-12-23T05:35:18.734Z,24.50
2018-12-23T05:37:46.215Z,22.70
2018-12-23T05:40:13.690Z,18.13
2018-12-23T05:42:41.163Z,23.27
2018-12-23T05:45:08.645Z,26.37
2018-12-23T05:47:36.220Z,25.07
2018-12-23T05:50:03.871Z,28.30
2018-12-23T05:52:31.359Z,25.13
2018-12-23T05:54:58.824Z,25.50
2018-12-23T05:57:26.306Z,22.67
2018-12-23T05:59:53.807Z,21.57
2018-12-23T06:02:21.271Z,25.00
2018-12-23T06:04:48.767Z,28.23
2018-12-23T06:07:16.243Z,25.90
2018-12-23T06:09:43.723Z,28.13
2018-12-23T06:12:11.201Z,26.33
2018-12-23T06:14:38.900Z,22.33
2018-12-23T06:17:06.382Z,27.47
2018-12-23T06:19:33.919Z,19.77
2018-12-23T06:22:01.367Z,28.73
2018-12-23T06:24:29.214Z,24.40
2018-12-23T06:26:56.685Z,26.80
2018-12-23T06:29:24.166Z,27.40
2018-12-23T06:31:51.621Z,18.57
2018-12-23T06:34:19.098Z,29.00
2018-12-23T06:36:46.551Z,27.07
2018-12-23T06:39:14.037Z,26.47
2018-12-23T06:41:41.521Z,27.30
2018-12-23T06:44:09.099Z,25.10
2018-12-23T06:46:36.546Z,30.70
2018-12-23T06:49:04.042Z,26.10
2018-12-23T06:51:31.545Z,21.73
2018-12-23T06:53:59.001Z,27.20
2018-12-23T06:56:26.463Z,26.37
2018-12-23T06:58:53.955Z,26.27
2018-12-23T07:01:21.411Z,29.00
2018-12-23T07:03:48.869Z,24.30
2018-12-23T07:06:16.335Z,29.97
2018-12-23T07:08:43.790Z,22.27
2018-12-23T07:11:11.365Z,26.37
2018-12-23T07:13:38.845Z,28.83
2018-12-23T07:16:06.303Z,25.47
2018-12-23T07:18:33.823Z,29.00
2018-12-23T07:21:01.284Z,26.57
2018-12-23T07:23:28.770Z,30.17
2018-12-23T07:25:56.321Z,29.00
2018-12-23T07:28:23.774Z,31.90
2018-12-23T07:30:51.254Z,30.07
2018-12-23T07:33:18.729Z,31.73
2018-12-23T07:35:46.209Z,24.40
2018-12-23T07:38:14.014Z,32.20
2018-12-23T07:40:41.507Z,23.97
2018-12-23T07:43:08.987Z,25.37
2018-12-23T07:45:36.486Z,34.00
2018-12-23T07:48:03.938Z,31.77
2018-12-23T07:50:31.382Z,29.40
2018-12-23T07:52:58.865Z,34.00
2018-12-23T07:55:26.343Z,32.80
2018-12-23T07:57:53.811Z,35.13
2018-12-23T08:00:21.286Z,34.20
2018-12-23T08:02:48.823Z,31.53
2018-12-23T08:05:16.293Z,27.13
2018-12-23T08:07:43.767Z,27.80
2018-12-23T08:10:11.249Z,28.30
2018-12-23T08:12:38.700Z,32.30
2018-12-23T08:15:06.251Z,34.40
2018-12-23T08:17:33.692Z,37.20
2018-12-23T08:20:01.176Z,36.73
2018-12-23T08:22:28.642Z,31.90
2018-12-23T08:24:57.221Z,34.77
2018-12-23T08:27:24.918Z,33.10
2018-12-23T08:29:52.368Z,28.40
2018-12-23T08:32:19.910Z,31.70
2018-12-23T08:34:47.380Z,32.70
2018-12-23T08:37:14.875Z,28.73
2018-12-23T08:39:42.327Z,31.67
2018-12-23T08:42:09.944Z,32.33
2018-12-23T08:44:37.425Z,26.43
2018-12-23T08:47:05.248Z,31.80
2018-12-23T08:49:32.680Z,30.77
2018-12-23T08:52:00.146Z,26.07
2018-12-23T08:54:27.639Z,26.93
2018-12-23T08:56:55.102Z,29.30
2018-12-23T08:59:22.561Z,32.00
2018-12-23T09:01:50.085Z,33.80
2018-12-23T09:07:30.152Z,33.77
2018-12-23T09:10:10.871Z,28.60
2018-12-23T09:12:51.548Z,28.63
2018-12-23T09:15:32.635Z,30.57
2018-12-23T09:18:19.267Z,18.63
2018-12-23T09:20:56.284Z,24.90
2018-12-23T09:23:37.234Z,30.13
2018-12-23T09:26:17.693Z,21.33
2018-12-23T09:28:58.607Z,29.23
2018-12-23T09:31:39.615Z,25.10
2018-12-23T09:34:20.619Z,31.20
2018-12-23T09:37:01.555Z,26.80
2018-12-23T09:39:42.228Z,25.87
2018-12-23T09:42:22.812Z,28.27
2018-12-23T09:45:03.220Z,28.20
2018-12-23T09:47:43.615Z,21.50
2018-12-23T09:50:24.755Z,24.47
2018-12-23T09:53:05.884Z,24.40
2018-12-23T09:55:46.729Z,15.87
2018-12-23T09:58:27.720Z,21.93
2018-12-23T10:01:08.586Z,21.83
2018-12-23T10:03:49.575Z,21.50
2018-12-23T10:06:28.400Z,23.50
2018-12-23T10:09:16.267Z,24.97
2018-12-23T10:11:57.189Z,22.97
2018-12-23T10:14:36.015Z,25.00
2018-12-23T10:17:23.880Z,22.07
2018-12-23T10:20:05.059Z,23.67
2018-12-23T10:22:45.885Z,26.03
2018-12-23T10:25:27.225Z,22.50
2018-12-23T10:28:07.761Z,27.03
2018-12-23T10:30:48.879Z,22.53
2018-12-23T10:33:30.091Z,23.23
2018-12-23T10:36:11.042Z,22.53
2018-12-23T10:38:51.403Z,23.90
2018-12-23T10:41:32.452Z,23.77
2018-12-23T10:44:13.592Z,23.90
2018-12-23T10:46:54.476Z,23.90
2018-12-23T10:49:35.355Z,24.60
2018-12-23T10:52:16.351Z,21.57
2018-12-23T10:54:57.409Z,20.23
2018-12-23T10:57:37.984Z,20.33
2018-12-23T11:00:19.132Z,24.00
2018-12-23T11:03:00.247Z,21.87
2018-12-23T11:05:41.347Z,21.77
2018-12-23T11:08:26.841Z,23.00
2018-12-23T11:11:04.394Z,20.47
2018-12-23T11:13:45.720Z,18.17
2018-12-23T11:16:26.848Z,18.57
2018-12-23T11:19:05.692Z,17.50
2018-12-23T11:21:46.254Z,21.27
2018-12-23T11:24:26.665Z,21.07
2018-12-23T11:27:07.052Z,21.37
2018-12-23T11:29:47.472Z,17.47
2018-12-23T11:32:28.117Z,16.30
2018-12-23T11:35:08.491Z,15.80
2018-12-23T11:37:48.860Z,15.00
2018-12-23T11:40:29.495Z,15.20
2018-12-23T11:43:10.076Z,12.90
2018-12-23T11:45:51.286Z,14.87
2018-12-23T11:48:32.212Z,14.90
2018-12-23T11:51:12.863Z,13.87
2018-12-23T11:53:53.768Z,14.20
2018-12-23T11:56:34.252Z,13.53
2018-12-23T11:59:15.289Z,12.40
2018-12-23T12:01:56.299Z,11.57
2018-12-23T12:04:36.859Z,10.17
2018-12-23T12:07:17.196Z,11.30
2018-12-23T12:09:56.275Z,10.53
2018-12-23T12:12:44.228Z,11.07
2018-12-23T12:15:25.292Z,11.47
2018-12-23T12:18:05.696Z,11.87
2018-12-23T12:20:46.983Z,11.37
2018-12-23T12:23:27.571Z,12.60
2018-12-23T12:26:08.660Z,13.83
2018-12-23T12:28:49.076Z,12.83
2018-12-23T12:31:29.438Z,11.27
2018-12-23T12:34:09.993Z,11.37
2018-12-23T12:36:50.543Z,9.50
2018-12-23T12:39:29.411Z,10.27
2018-12-23T12:42:17.296Z,9.10
2018-12-23T12:44:57.604Z,7.80
2018-12-23T12:47:38.909Z,7.60
2018-12-23T12:50:20.122Z,7.77
2018-12-23T12:53:00.503Z,8.70
2018-12-23T12:55:40.883Z,8.30
2018-12-23T12:58:21.900Z,7.30
2018-12-23T13:01:02.339Z,6.10
2018-12-23T13:03:41.175Z,6.90
2018-12-23T13:06:21.919Z,6.03
2018-12-23T13:09:00.919Z,7.67
2018-12-23T13:11:41.991Z,7.23
2018-12-23T13:14:23.092Z,5.80
2018-12-23T13:17:04.116Z,6.80
2018-12-23T13:19:44.897Z,7.87
2018-12-23T13:22:26.087Z,7.83
2018-12-23T13:25:06.687Z,9.00
2018-12-23T13:27:47.099Z,7.90
2018-12-23T13:30:27.504Z,9.20
2018-12-23T13:33:08.483Z,10.50
2018-12-23T13:35:49.610Z,9.10
2018-12-23T13:38:30.844Z,9.70
2018-12-23T13:41:11.815Z,9.00
2018-12-23T13:43:53.268Z,9.83
2018-12-23T13:46:34.113Z,9.23
2018-12-23T13:49:15.327Z,8.80
2018-12-23T13:51:56.588Z,9.63
2018-12-23T13:54:37.679Z,9.50
2018-12-23T13:57:18.685Z,9.17
2018-12-23T13:59:59.200Z,10.33
2018-12-23T14:02:40.226Z,9.60
2018-12-23T14:05:20.720Z,8.50
2018-12-23T14:08:03.823Z,9.20
2018-12-23T14:10:45.054Z,9.50
2018-12-23T14:13:26.314Z,9.93
2018-12-23T14:16:08.828Z,10.83
2018-12-23T14:18:49.512Z,9.70
2018-12-23T14:21:30.864Z,9.50
2018-12-23T14:24:12.096Z,12.27
2018-12-23T14:26:53.121Z,11.80
2018-12-23T14:29:33.824Z,11.90
2018-12-23T14:32:14.267Z,11.40
2018-12-23T14:34:53.159Z,14.90
2018-12-23T14:37:33.923Z,13.20
2018-12-23T14:40:14.761Z,14.60
2018-12-23T14:42:55.460Z,14.47
2018-12-23T14:45:36.737Z,11.13
2018-12-23T14:48:17.814Z,11.97
2018-12-23T14:50:59.396Z,11.17
2018-12-23T14:53:39.641Z,12.30
2018-12-23T14:59:15.301Z,10.60
2018-12-23T15:02:03.346Z,12.00
2018-12-23T15:04:51.311Z,11.40
2018-12-23T15:07:32.217Z,10.30
2018-12-23T15:10:13.874Z,10.03
2018-12-23T15:12:54.876Z,13.23
2018-12-23T15:15:36.023Z,14.50
2018-12-23T15:18:16.646Z,14.80
2018-12-23T15:20:55.956Z,13.10
2018-12-23T15:23:36.731Z,13.83
2018-12-23T15:26:18.125Z,14.17
2018-12-23T15:28:59.242Z,15.97
2018-12-23T15:31:39.959Z,14.50
2018-12-23T15:34:20.898Z,14.10
2018-12-23T15:37:02.076Z,14.30
2018-12-23T15:39:43.219Z,12.60
2018-12-23T15:42:24.155Z,12.13
2018-12-23T15:45:04.717Z,11.03
2018-12-23T15:47:45.114Z,13.40
2018-12-23T15:50:26.041Z,13.97
2018-12-23T15:53:07.269Z,13.80
2018-12-23T15:55:47.958Z,13.90
2018-12-23T15:58:28.768Z,14.00
2018-12-23T16:01:10.170Z,12.77
2018-12-23T16:03:50.556Z,13.27
2018-12-23T16:06:31.663Z,13.67
2018-12-23T16:09:12.866Z,12.87
2018-12-23T16:11:41.716Z,13.03
2018-12-23T16:14:10.708Z,12.37
2018-12-23T16:16:58.777Z,11.90
2018-12-23T16:19:46.934Z,12.53
2018-12-23T16:22:27.475Z,12.70
2018-12-23T16:25:09.764Z,15.30
2018-12-23T16:27:50.927Z,13.70
2018-12-23T16:30:34.564Z,13.43
2018-12-23T16:33:15.974Z,11.60
2018-12-23T16:35:56.520Z,11.77
2018-12-23T16:38:37.864Z,11.90
2018-12-23T16:41:18.807Z,10.20
2018-12-23T16:43:59.215Z,10.63
2018-12-23T16:46:40.185Z,9.27
2018-12-23T16:49:21.432Z,9.60
2018-12-23T16:52:02.841Z,8.37
2018-12-23T16:54:31.539Z,8.37
2018-12-23T16:57:12.254Z,11.30
2018-12-23T16:59:53.193Z,12.37
2018-12-23T17:02:34.735Z,11.50
2018-12-23T17:05:15.388Z,9.77
2018-12-23T17:07:55.713Z,9.90
2018-12-23T17:10:36.325Z,9.30
2018-12-23T17:13:16.733Z,9.13
2018-12-23T17:15:57.986Z,8.70
2018-12-23T17:18:38.339Z,10.50
2018-12-23T17:21:19.511Z,9.10
2018-12-23T17:24:00.688Z,8.60
2018-12-23T17:26:41.853Z,9.83
2018-12-23T17:29:22.471Z,10.40
2018-12-23T17:32:03.662Z,10.53
2018-12-23T17:34:44.297Z,10.80
2018-12-23T17:37:25.578Z,11.77
2018-12-23T17:40:06.279Z,11.50
2018-12-23T17:42:47.327Z,11.03
2018-12-23T17:45:27.783Z,11.53
2018-12-23T17:48:09.029Z,11.50
2018-12-23T17:50:50.330Z,10.90
2018-12-23T17:53:19.299Z,10.13
2018-12-23T17:56:07.576Z,11.30
2018-12-23T18:02:00.471Z,7.50
2018-12-23T18:04:41.596Z,8.20
2018-12-23T18:07:21.903Z,8.10
2018-12-23T18:10:02.488Z,6.33
2018-12-23T18:12:43.996Z,6.20
2018-12-23T18:15:27.013Z,6.03
2018-12-23T18:18:07.388Z,6.20
2018-12-23T18:20:48.447Z,5.80
2018-12-23T18:23:28.938Z,5.90
2018-12-23T18:26:10.074Z,6.20
2018-12-23T18:28:50.563Z,6.20
2018-12-23T18:31:31.785Z,6.33
2018-12-23T18:34:12.882Z,5.93
2018-12-23T18:36:54.159Z,6.40
2018-12-23T18:39:34.907Z,7.33
2018-12-23T18:42:15.355Z,8.30
2018-12-23T18:44:56.134Z,6.97
2018-12-23T18:47:37.034Z,7.53
2018-12-23T18:50:18.265Z,6.57
2018-12-23T18:52:59.699Z,5.70
2018-12-23T18:55:40.642Z,5.97
2018-12-23T18:58:21.372Z,4.53
2018-12-23T19:01:02.718Z,3.83
2018-12-23T19:03:43.643Z,2.97
2018-12-23T19:06:24.307Z,3.00
2018-12-23T19:09:04.705Z,2.70
2018-12-23T19:11:45.209Z,2.97
2018-12-23T19:14:25.780Z,3.47
2018-12-23T19:17:06.725Z,3.53
2018-12-23T19:19:47.166Z,3.83
2018-12-23T19:22:54.380Z,3.40
2018-12-23T19:25:35.399Z,3.47
2018-12-23T19:28:16.628Z,3.80
2018-12-23T19:30:57.009Z,3.07
2018-12-23T19:33:38.028Z,3.57
2018-12-23T19:36:38.622Z,3.77
2018-12-23T19:39:45.830Z,3.40
2018-12-23T19:42:26.516Z,3.60
2018-12-23T19:45:07.560Z,4.00
2018-12-23T19:47:50.672Z,3.57
2018-12-23T19:53:53.794Z,3.40
2018-12-23T19:56:34.164Z,2.87
2018-12-23T19:59:14.569Z,3.77
2018-12-23T20:01:55.065Z,3.40
2018-12-23T20:04:35.602Z,4.77
2018-12-23T20:07:16.106Z,3.40
2018-12-23T20:09:57.112Z,4.27
2018-12-23T20:12:38.328Z,4.50
2018-12-23T20:15:18.892Z,5.10
2018-12-23T20:18:00.039Z,4.47
2018-12-23T20:20:41.077Z,4.10
2018-12-23T20:23:21.479Z,4.70
2018-12-23T20:26:01.847Z,5.30
2018-12-23T20:28:42.792Z,5.80
2018-12-23T20:31:23.181Z,6.40
2018-12-23T20:34:03.556Z,7.43
2018-12-23T20:36:43.976Z,7.00
2018-12-23T20:39:25.121Z,7.33
2018-12-23T20:42:05.712Z,5.67
2018-12-23T20:44:46.684Z,6.53
2018-12-23T20:47:27.959Z,5.70
2018-12-23T20:50:09.198Z,6.27
2018-12-23T20:52:50.254Z,6.57
2018-12-23T20:55:30.843Z,6.97
2018-12-23T20:58:11.255Z,6.57
2018-12-23T21:00:55.029Z,7.47
2018-12-23T21:03:36.187Z,4.27
2018-12-23T21:06:17.128Z,4.70
2018-12-23T21:09:00.564Z,4.80
2018-12-23T21:14:55.384Z,6.90
2018-12-23T21:17:36.446Z,7.73
2018-12-23T21:20:17.682Z,7.00
2018-12-23T21:22:59.085Z,7.67
2018-12-23T21:25:40.448Z,8.03
2018-12-23T21:28:21.356Z,7.00
2018-12-23T21:34:11.912Z,8.03
2018-12-23T21:37:11.358Z,6.07
2018-12-23T21:40:18.979Z,6.60
2018-12-23T21:43:00.341Z,6.80
2018-12-23T21:45:41.716Z,5.97
2018-12-23T21:48:22.816Z,7.23
2018-12-23T21:51:03.212Z,6.30
2018-12-23T21:53:44.384Z,4.67
2018-12-23T21:56:24.896Z,5.13
2018-12-23T21:59:06.071Z,4.80
2018-12-23T22:01:47.267Z,4.80
2018-12-23T22:04:28.489Z,5.63
2018-12-23T22:07:08.880Z,4.87
2018-12-23T22:09:49.853Z,3.60
2018-12-23T22:12:30.939Z,6.30
2018-12-23T22:15:11.888Z,5.40
2018-12-23T22:17:52.966Z,4.90
2018-12-23T22:20:33.282Z,5.33
2018-12-23T22:23:14.175Z,6.53
2018-12-23T22:25:54.664Z,6.37
2018-12-23T22:28:35.132Z,6.20
2018-12-23T22:31:14.041Z,5.00
2018-12-23T22:34:01.933Z,5.73
2018-12-23T22:36:43.083Z,4.27
2018-12-23T22:39:24.280Z,5.60
2018-12-23T22:42:05.489Z,5.00
2018-12-23T22:44:46.668Z,3.93
2018-12-23T22:47:27.708Z,4.80
2018-12-23T22:50:08.007Z,4.40
2018-12-23T22:52:48.320Z,5.53
2018-12-23T22:55:29.512Z,3.03
2018-12-23T22:58:10.557Z,2.87
2018-12-23T23:00:51.467Z,5.53
2018-12-23T23:03:31.947Z,4.30
2018-12-23T23:06:12.884Z,4.77
2018-12-23T23:08:53.276Z,5.10
2018-12-23T23:11:34.293Z,3.83
2018-12-23T23:14:13.168Z,4.00
2018-12-23T23:17:01.080Z,4.30
2018-12-23T23:19:41.511Z,4.10
2018-12-23T23:22:20.378Z,4.10
2018-12-23T23:25:08.270Z,4.27
2018-12-23T23:27:48.760Z,3.70
2018-12-23T23:30:29.855Z,4.90
2018-12-23T23:33:10.932Z,4.80
2018-12-23T23:35:51.672Z,4.23
2018-12-23T23:38:32.989Z,5.37
2018-12-23T23:41:01.627Z,5.50
2018-12-23T23:43:49.516Z,4.60
2018-12-23T23:46:37.503Z,4.20
2018-12-23T23:49:18.099Z,4.47
2018-12-23T23:51:59.085Z,3.80
2018-12-23T23:54:39.812Z,4.33
2018-12-23T23:57:20.989Z,2.60
